createdAt,value
2023-03-02T00:01:03.518Z,28.97
2023-03-02T00:03:30.544Z,30.43
2023-03-02T00:05:57.807Z,31.23
2023-03-02T00:08:24.401Z,33.60
2023-03-02T00:10:50.998Z,32.57
2023-03-02T00:13:17.663Z,32.33
2023-03-02T00:15:44.278Z,29.90
2023-03-02T00:18:10.861Z,29.00
2023-03-02T00:20:37.511Z,25.30
2023-03-02T00:23:04.127Z,31.33
2023-03-02T00:25:30.684Z,30.37
2023-03-02T00:27:57.319Z,31.23
2023-03-02T00:30:24.309Z,33.70
2023-03-02T00:32:50.890Z,30.20
2023-03-02T00:35:17.696Z,32.50
2023-03-02T00:37:44.386Z,30.53
2023-03-02T00:40:11.473Z,30.53
2023-03-02T00:42:38.186Z,34.40
2023-03-02T00:45:05.914Z,45.73
2023-03-02T00:47:36.368Z,33.70
2023-03-02T00:50:04.655Z,44.30
2023-03-02T00:52:32.001Z,34.47
2023-03-02T00:54:58.859Z,36.90
2023-03-02T00:57:25.583Z,39.33
2023-03-02T00:59:52.192Z,35.93
2023-03-02T01:02:21.527Z,35.47
2023-03-02T01:04:48.392Z,34.87
2023-03-02T01:07:17.702Z,32.27
2023-03-02T01:09:45.227Z,36.40
2023-03-02T01:12:12.255Z,35.90
2023-03-02T01:14:40.458Z,36.40
2023-03-02T01:17:07.426Z,34.97
2023-03-02T01:19:34.258Z,36.37
2023-03-02T01:22:00.931Z,39.80
2023-03-02T01:24:27.923Z,32.90
2023-03-02T01:26:54.523Z,39.90
2023-03-02T01:29:21.221Z,38.97
2023-03-02T01:31:47.966Z,34.73
2023-03-02T01:34:14.680Z,41.67
2023-03-02T01:36:41.486Z,39.37
2023-03-02T01:39:08.154Z,40.67
2023-03-02T01:41:34.939Z,39.70
2023-03-02T01:44:01.550Z,40.80
2023-03-02T01:46:31.484Z,44.33
2023-03-02T01:49:06.493Z,41.17
2023-03-02T01:51:37.595Z,40.53
2023-03-02T01:54:07.818Z,40.27
2023-03-02T01:56:37.591Z,41.93
2023-03-02T01:59:09.278Z,37.67
2023-03-02T02:01:38.188Z,47.47
2023-03-02T02:04:04.933Z,45.07
2023-03-02T02:06:35.456Z,33.83
2023-03-02T02:09:03.700Z,41.67
2023-03-02T02:11:30.805Z,40.67
2023-03-02T02:13:59.542Z,37.00
2023-03-02T02:16:27.192Z,33.53
2023-03-02T02:18:53.823Z,40.10
2023-03-02T02:21:21.416Z,43.47
2023-03-02T02:23:50.605Z,41.40
2023-03-02T02:26:22.948Z,42.90
2023-03-02T02:28:58.145Z,39.27
2023-03-02T02:31:35.839Z,34.27
2023-03-02T02:34:10.435Z,43.43
2023-03-02T02:36:41.082Z,36.77
2023-03-02T02:39:08.860Z,37.57
2023-03-02T02:41:38.461Z,32.53
2023-03-02T02:44:14.400Z,34.17
2023-03-02T02:46:40.972Z,30.67
2023-03-02T02:49:17.841Z,36.80
2023-03-02T02:51:44.468Z,36.93
2023-03-02T02:54:15.166Z,56.43
2023-03-02T02:56:42.310Z,37.17
2023-03-02T02:59:48.124Z,34.17
2023-03-02T03:02:25.053Z,38.07
2023-03-02T03:04:51.987Z,35.10
2023-03-02T03:07:21.524Z,36.53
2023-03-02T03:10:02.056Z,35.20
2023-03-02T03:12:29.356Z,38.23
2023-03-02T03:14:56.067Z,35.53
2023-03-02T03:17:36.629Z,27.67
2023-03-02T03:20:10.853Z,36.90
2023-03-02T03:22:38.683Z,40.10
2023-03-02T03:25:06.117Z,35.47
2023-03-02T03:27:32.737Z,33.37
2023-03-02T03:30:01.903Z,37.67
2023-03-02T03:32:28.661Z,35.73
2023-03-02T03:34:55.304Z,35.90
2023-03-02T03:37:21.919Z,37.80
2023-03-02T03:39:48.569Z,35.93
2023-03-02T03:42:15.221Z,35.60
2023-03-02T03:44:41.870Z,34.67
2023-03-02T03:47:08.395Z,34.30
2023-03-02T03:49:35.450Z,32.87
2023-03-02T03:52:02.378Z,36.87
2023-03-02T03:54:28.992Z,32.57
2023-03-02T03:56:55.600Z,34.37
2023-03-02T03:59:24.312Z,37.07
2023-03-02T04:01:56.670Z,32.93
2023-03-02T04:04:32.555Z,31.83
2023-03-02T04:06:59.786Z,37.33
2023-03-02T04:09:27.269Z,37.97
2023-03-02T04:11:55.632Z,31.07
2023-03-02T04:14:23.778Z,32.53
2023-03-02T04:16:50.554Z,38.80
2023-03-02T04:19:17.766Z,35.73
2023-03-02T04:21:47.278Z,26.83
2023-03-02T04:24:14.904Z,30.97
2023-03-02T04:26:42.841Z,38.33
2023-03-02T04:29:10.459Z,34.30
2023-03-02T04:31:37.450Z,29.63
2023-03-02T04:34:04.602Z,32.50
2023-03-02T04:36:36.139Z,36.33
2023-03-02T04:39:04.220Z,34.53
2023-03-02T04:41:30.879Z,41.27
2023-03-02T04:43:57.651Z,27.07
2023-03-02T04:46:25.866Z,37.77
2023-03-02T04:48:52.528Z,37.33
2023-03-02T04:51:25.120Z,41.50
2023-03-02T04:53:57.122Z,40.00
2023-03-02T04:56:23.732Z,49.63
2023-03-02T04:58:50.504Z,39.63
2023-03-02T05:01:18.371Z,40.40
2023-03-02T05:03:45.534Z,33.83
2023-03-02T05:06:12.166Z,42.67
2023-03-02T05:08:38.839Z,41.63
2023-03-02T05:11:06.593Z,40.13
2023-03-02T05:13:33.487Z,41.80
2023-03-02T05:16:00.732Z,35.93
2023-03-02T05:18:27.326Z,36.83
2023-03-02T05:20:54.408Z,35.83
2023-03-02T05:23:25.884Z,39.80
2023-03-02T05:25:53.931Z,31.70
2023-03-02T05:28:21.347Z,35.10
2023-03-02T05:30:48.381Z,41.23
2023-03-02T05:33:15.846Z,37.57
2023-03-02T05:35:43.116Z,37.43
2023-03-02T05:38:10.061Z,39.90
2023-03-02T05:40:36.696Z,35.87
2023-03-02T05:43:03.631Z,35.57
2023-03-02T05:45:33.325Z,38.80
2023-03-02T05:47:59.922Z,39.23
2023-03-02T05:50:26.552Z,35.80
2023-03-02T05:52:53.260Z,33.13
2023-03-02T05:55:20.311Z,33.40
2023-03-02T05:57:49.430Z,32.53
2023-03-02T06:00:17.329Z,37.13
2023-03-02T06:02:44.219Z,30.33
2023-03-02T06:05:16.634Z,21.83
2023-03-02T06:07:43.812Z,36.93
2023-03-02T06:10:12.147Z,35.40
2023-03-02T06:12:39.228Z,29.23
2023-03-02T06:15:06.895Z,32.13
2023-03-02T06:17:33.848Z,32.70
2023-03-02T06:20:00.488Z,34.80
2023-03-02T06:22:27.117Z,33.87
2023-03-02T06:24:55.291Z,30.03
2023-03-02T06:27:21.893Z,36.22
2023-03-02T06:29:49.162Z,36.57
2023-03-02T06:32:16.043Z,37.20
2023-03-02T06:34:42.823Z,30.27
2023-03-02T06:37:09.515Z,33.63
2023-03-02T06:39:36.101Z,34.13
2023-03-02T06:42:02.692Z,34.13
2023-03-02T06:44:29.398Z,34.97
2023-03-02T06:46:55.945Z,30.97
2023-03-02T06:49:22.482Z,33.27
2023-03-02T06:51:49.097Z,35.23
2023-03-02T06:54:15.665Z,46.87
2023-03-02T06:56:42.294Z,37.20
2023-03-02T06:59:08.942Z,39.87
2023-03-02T07:01:36.380Z,36.67
2023-03-02T07:04:03.501Z,38.47
2023-03-02T07:06:30.438Z,22.67
2023-03-02T07:08:57.045Z,18.53
2023-03-02T07:11:23.953Z,26.93
2023-03-02T07:13:51.119Z,25.03
2023-03-02T07:16:17.841Z,26.00
2023-03-02T07:18:44.440Z,26.20
2023-03-02T07:21:11.005Z,30.53
2023-03-02T07:23:37.680Z,33.20
2023-03-02T07:26:08.511Z,19.63
2023-03-02T07:28:40.196Z,30.27
2023-03-02T07:31:07.388Z,23.90
2023-03-02T07:33:34.472Z,30.03
2023-03-02T07:36:01.464Z,27.53
2023-03-02T07:38:28.547Z,27.27
2023-03-02T07:40:55.427Z,30.73
2023-03-02T07:43:24.152Z,31.67
2023-03-02T07:45:50.839Z,41.10
2023-03-02T07:48:17.674Z,34.27
2023-03-02T07:50:44.296Z,30.17
2023-03-02T07:53:10.813Z,28.17
2023-03-02T07:55:40.882Z,20.93
2023-03-02T07:58:07.580Z,27.73
2023-03-02T08:00:34.393Z,28.50
2023-03-02T08:03:01.010Z,27.17
2023-03-02T08:05:27.633Z,27.67
2023-03-02T08:07:54.258Z,25.57
2023-03-02T08:10:20.914Z,31.40
2023-03-02T08:12:47.506Z,30.00
2023-03-02T08:15:14.241Z,27.97
2023-03-02T08:17:40.841Z,28.63
2023-03-02T08:20:08.292Z,28.23
2023-03-02T08:22:34.984Z,29.97
2023-03-02T08:25:01.574Z,23.13
2023-03-02T08:27:28.206Z,26.07
2023-03-02T08:29:54.836Z,30.10
2023-03-02T08:32:21.473Z,28.67
2023-03-02T08:34:51.701Z,27.40
2023-03-02T08:37:21.357Z,22.83
2023-03-02T08:39:48.553Z,26.33
2023-03-02T08:42:15.309Z,23.30
2023-03-02T08:44:41.974Z,26.43
2023-03-02T08:47:08.571Z,23.60
2023-03-02T08:49:36.838Z,26.30
2023-03-02T08:52:03.918Z,27.27
2023-03-02T08:54:30.932Z,25.37
2023-03-02T08:56:57.576Z,25.30
2023-03-02T08:59:24.311Z,21.33
2023-03-02T09:01:50.957Z,23.33
2023-03-02T09:04:17.844Z,22.00
2023-03-02T09:06:45.357Z,26.00
2023-03-02T09:09:13.634Z,23.30
2023-03-02T09:11:42.355Z,22.07
2023-03-02T09:14:09.446Z,22.17
2023-03-02T09:16:36.137Z,13.70
2023-03-02T09:19:02.977Z,24.27
2023-03-02T09:21:29.628Z,18.37
2023-03-02T09:23:58.163Z,26.93
2023-03-02T09:26:26.382Z,19.87
2023-03-02T09:28:53.185Z,22.63
2023-03-02T09:31:20.037Z,26.57
2023-03-02T09:33:46.673Z,22.63
2023-03-02T09:36:19.863Z,31.10
2023-03-02T09:38:46.603Z,30.70
2023-03-02T09:41:19.576Z,24.37
2023-03-02T09:44:30.710Z,28.83
2023-03-02T09:47:02.574Z,24.70
2023-03-02T09:49:41.206Z,27.90
2023-03-02T09:52:44.494Z,26.33
2023-03-02T09:55:24.103Z,29.43
2023-03-02T09:57:51.091Z,29.27
2023-03-02T10:00:27.674Z,21.87
2023-03-02T10:03:02.454Z,26.97
2023-03-02T10:05:41.248Z,19.53
2023-03-02T10:08:23.453Z,24.20
2023-03-02T10:11:25.478Z,22.50
2023-03-02T10:13:58.800Z,21.07
2023-03-02T10:16:48.609Z,26.07
2023-03-02T10:19:20.343Z,19.20
2023-03-02T10:21:49.774Z,23.20
2023-03-02T10:24:19.473Z,22.93
2023-03-02T10:27:16.642Z,20.77
2023-03-02T10:29:50.770Z,18.33
2023-03-02T10:32:25.930Z,19.67
2023-03-02T10:34:54.035Z,20.63
2023-03-02T10:37:25.303Z,19.17
2023-03-02T10:39:52.895Z,20.03
2023-03-02T10:42:30.310Z,21.47
2023-03-02T10:45:22.164Z,21.27
2023-03-02T10:48:09.838Z,17.90
2023-03-02T10:50:36.939Z,20.53
2023-03-02T10:53:06.888Z,18.23
2023-03-02T10:55:34.626Z,20.13
2023-03-02T10:58:15.793Z,18.50
2023-03-02T11:00:42.338Z,18.70
2023-03-02T11:03:21.278Z,18.93
2023-03-02T11:05:47.956Z,25.47
2023-03-02T11:08:26.717Z,16.97
2023-03-02T11:11:00.955Z,19.60
2023-03-02T11:13:35.327Z,17.83
2023-03-02T11:16:20.944Z,15.80
2023-03-02T11:19:04.189Z,14.33
2023-03-02T11:21:36.861Z,14.93
2023-03-02T11:24:10.950Z,15.47
2023-03-02T11:26:55.529Z,15.20
2023-03-02T11:29:53.141Z,11.10
2023-03-02T11:32:34.195Z,13.67
2023-03-02T11:35:05.364Z,15.63
2023-03-02T11:37:40.621Z,16.47
2023-03-02T11:40:23.101Z,19.67
2023-03-02T11:42:50.510Z,16.97
2023-03-02T11:45:21.773Z,15.37
2023-03-02T11:48:03.469Z,13.57
2023-03-02T11:50:34.794Z,19.52
2023-03-02T11:53:04.713Z,14.87
2023-03-02T11:55:35.500Z,15.23
2023-03-02T11:58:03.680Z,15.33
2023-03-02T12:00:37.312Z,16.00
2023-03-02T12:03:19.368Z,16.40
2023-03-02T12:05:58.484Z,50.57
2023-03-02T12:08:25.008Z,21.03
2023-03-02T12:11:28.785Z,32.43
2023-03-02T12:13:55.339Z,16.60
2023-03-02T12:16:21.909Z,15.70
2023-03-02T12:18:50.424Z,17.57
2023-03-02T12:21:22.945Z,31.37
2023-03-02T12:23:49.462Z,21.03
2023-03-02T12:26:22.129Z,23.27
2023-03-02T12:29:07.605Z,21.43
2023-03-02T12:31:43.509Z,15.03
2023-03-02T12:34:32.357Z,14.47
2023-03-02T12:37:04.816Z,14.87
2023-03-02T12:39:44.994Z,14.80
2023-03-02T12:42:32.856Z,16.83
2023-03-02T12:45:34.671Z,13.67
2023-03-02T12:48:30.830Z,17.30
2023-03-02T12:51:02.645Z,17.63
2023-03-02T12:53:29.769Z,15.00
2023-03-02T12:55:56.514Z,20.63
2023-03-02T12:58:28.358Z,18.70
2023-03-02T13:01:00.826Z,22.90
2023-03-02T13:03:29.983Z,23.33
2023-03-02T13:06:05.561Z,19.57
2023-03-02T13:08:32.363Z,20.67
2023-03-02T13:11:01.492Z,22.43
2023-03-02T13:13:38.888Z,19.20
2023-03-02T13:16:25.964Z,20.90
2023-03-02T13:18:58.515Z,22.60
2023-03-02T13:21:40.089Z,18.70
2023-03-02T13:24:26.363Z,21.37
2023-03-02T13:26:58.448Z,21.80
2023-03-02T13:29:31.068Z,21.30
2023-03-02T13:32:08.027Z,29.50
2023-03-02T13:34:35.516Z,18.53
2023-03-02T13:37:02.154Z,21.90
2023-03-02T13:39:31.601Z,25.30
2023-03-02T13:42:02.832Z,18.57
2023-03-02T13:44:34.521Z,24.70
2023-03-02T13:47:01.968Z,21.27
2023-03-02T13:49:35.819Z,28.77
2023-03-02T13:52:29.697Z,30.73
2023-03-02T13:54:56.274Z,27.70
2023-03-02T13:57:30.877Z,26.13
2023-03-02T13:59:58.760Z,27.67
2023-03-02T14:02:27.683Z,26.77
2023-03-02T14:04:54.845Z,32.63
2023-03-02T14:07:21.588Z,27.93
2023-03-02T14:09:49.049Z,29.30
2023-03-02T14:12:31.024Z,23.97
2023-03-02T14:15:00.442Z,26.43
2023-03-02T14:17:27.413Z,26.97
2023-03-02T14:19:55.304Z,33.57
2023-03-02T14:22:23.693Z,31.80
2023-03-02T14:24:50.363Z,29.27
2023-03-02T14:27:17.896Z,24.77
2023-03-02T14:29:45.589Z,28.53
2023-03-02T14:32:13.819Z,21.37
2023-03-02T14:34:41.080Z,29.07
2023-03-02T14:37:11.195Z,30.30
2023-03-02T14:39:39.586Z,24.77
2023-03-02T14:42:10.756Z,28.83
2023-03-02T14:44:37.385Z,26.60
2023-03-02T14:47:04.023Z,32.10
2023-03-02T14:49:30.711Z,28.60
2023-03-02T14:52:02.187Z,30.13
2023-03-02T14:54:53.203Z,25.63
2023-03-02T14:57:27.580Z,29.13
2023-03-02T14:59:55.510Z,31.07
2023-03-02T15:02:26.048Z,31.97
2023-03-02T15:04:56.543Z,36.03
2023-03-02T15:07:24.299Z,37.47
2023-03-02T15:09:50.891Z,29.20
2023-03-02T15:12:17.459Z,35.37
2023-03-02T15:14:44.136Z,30.60
2023-03-02T15:17:10.938Z,31.63
2023-03-02T15:19:37.497Z,31.00
2023-03-02T15:22:04.551Z,31.43
2023-03-02T15:24:33.246Z,31.27
2023-03-02T15:27:00.194Z,34.83
2023-03-02T15:29:27.036Z,31.87
2023-03-02T15:31:53.855Z,38.63
2023-03-02T15:34:20.666Z,36.93
2023-03-02T15:36:47.294Z,40.07
2023-03-02T15:39:14.582Z,41.53
2023-03-02T15:41:43.974Z,44.60
2023-03-02T15:44:24.589Z,41.13
2023-03-02T15:46:54.660Z,43.50
2023-03-02T15:49:24.512Z,37.43
2023-03-02T15:51:52.157Z,36.33
2023-03-02T15:54:18.966Z,34.93
2023-03-02T15:56:47.939Z,43.23
2023-03-02T15:59:15.512Z,38.93
2023-03-02T16:01:42.132Z,38.43
2023-03-02T16:04:08.711Z,40.23
2023-03-02T16:06:35.368Z,34.80
2023-03-02T16:09:02.208Z,30.70
2023-03-02T16:11:28.870Z,33.70
2023-03-02T16:13:55.417Z,34.17
2023-03-02T16:16:22.188Z,30.67
2023-03-02T16:19:01.551Z,38.30
2023-03-02T16:21:28.934Z,34.70
2023-03-02T16:24:09.432Z,35.73
2023-03-02T16:26:38.188Z,34.27
2023-03-02T16:29:08.116Z,41.70
2023-03-02T16:31:37.792Z,41.20
2023-03-02T16:34:09.075Z,35.20
2023-03-02T16:36:37.467Z,45.70
2023-03-02T16:39:05.488Z,40.27
2023-03-02T16:41:32.223Z,37.17
2023-03-02T16:43:59.147Z,41.80
2023-03-02T16:46:29.221Z,43.37
2023-03-02T16:48:56.919Z,39.33
2023-03-02T16:51:24.246Z,40.20
2023-03-02T16:53:51.908Z,34.67
2023-03-02T16:56:18.556Z,37.17
2023-03-02T16:58:45.280Z,37.30
2023-03-02T17:01:15.284Z,39.13
2023-03-02T17:03:42.735Z,39.23
2023-03-02T17:06:10.985Z,45.50
2023-03-02T17:08:38.188Z,119.03
2023-03-02T17:11:05.075Z,224.03
2023-03-02T17:13:31.865Z,98.47
2023-03-02T17:15:58.756Z,59.73
2023-03-02T17:18:27.715Z,60.60
2023-03-02T17:20:55.797Z,108.63
2023-03-02T17:23:22.550Z,73.53
2023-03-02T17:25:49.236Z,61.20
2023-03-02T17:28:16.819Z,61.17
2023-03-02T17:30:44.414Z,54.87
2023-03-02T17:33:11.715Z,51.60
2023-03-02T17:35:38.495Z,58.07
2023-03-02T17:38:05.406Z,63.10
2023-03-02T17:40:32.388Z,52.70
2023-03-02T17:42:58.996Z,59.47
2023-03-02T17:45:27.332Z,51.60
2023-03-02T17:47:55.813Z,50.00
2023-03-02T17:50:23.036Z,49.03
2023-03-02T17:52:49.753Z,44.13
2023-03-02T17:55:16.644Z,50.63
2023-03-02T17:57:43.237Z,60.33
2023-03-02T18:00:13.358Z,64.30
2023-03-02T18:02:39.986Z,59.13
2023-03-02T18:05:08.903Z,77.37
2023-03-02T18:07:36.021Z,84.37
2023-03-02T18:10:03.104Z,48.90
2023-03-02T18:12:29.779Z,41.03
2023-03-02T18:14:56.359Z,39.67
2023-03-02T18:17:22.990Z,39.27
2023-03-02T18:19:49.645Z,44.70
2023-03-02T18:22:16.279Z,40.70
2023-03-02T18:24:43.129Z,45.23
2023-03-02T18:27:09.827Z,51.30
2023-03-02T18:29:36.455Z,244.23
2023-03-02T18:32:03.298Z,63.13
2023-03-02T18:34:29.916Z,85.97
2023-03-02T18:36:56.490Z,51.67
2023-03-02T18:39:23.157Z,44.33
2023-03-02T18:41:49.806Z,47.27
2023-03-02T18:44:16.630Z,42.30
2023-03-02T18:46:43.373Z,47.77
2023-03-02T18:49:10.050Z,51.00
2023-03-02T18:51:36.639Z,45.63
2023-03-02T18:54:03.472Z,44.63
2023-03-02T18:56:30.082Z,45.17
2023-03-02T18:58:56.809Z,46.83
2023-03-02T19:01:23.873Z,43.70
2023-03-02T19:03:50.552Z,45.90
2023-03-02T19:06:17.236Z,42.00
2023-03-02T19:08:43.951Z,41.30
2023-03-02T19:11:11.971Z,45.67
2023-03-02T19:13:38.654Z,46.50
2023-03-02T19:16:05.955Z,43.60
2023-03-02T19:18:34.385Z,46.47
2023-03-02T19:21:01.481Z,44.60
2023-03-02T19:23:28.141Z,48.97
2023-03-02T19:25:54.701Z,50.17
2023-03-02T19:28:21.806Z,52.13
2023-03-02T19:30:50.574Z,44.23
2023-03-02T19:33:33.474Z,45.10
2023-03-02T19:36:00.206Z,56.30
2023-03-02T19:38:29.376Z,51.27
2023-03-02T19:40:57.855Z,50.37
2023-03-02T19:43:25.689Z,49.47
2023-03-02T19:45:52.813Z,59.50
2023-03-02T19:48:19.954Z,54.03
2023-03-02T19:50:46.698Z,51.90
2023-03-02T19:53:13.529Z,57.57
2023-03-02T19:55:42.623Z,48.93
2023-03-02T19:58:11.097Z,46.93
2023-03-02T20:00:38.871Z,57.80
2023-03-02T20:03:06.218Z,50.87
2023-03-02T20:05:32.911Z,56.93
2023-03-02T20:07:59.555Z,53.20
2023-03-02T20:10:42.918Z,54.67
2023-03-02T20:13:09.673Z,58.87
2023-03-02T20:15:40.057Z,59.03
2023-03-02T20:18:08.573Z,63.87
2023-03-02T20:20:35.259Z,73.27
2023-03-02T20:23:04.955Z,62.50
2023-03-02T20:25:31.685Z,72.27
2023-03-02T20:27:58.484Z,66.70
2023-03-02T20:30:34.003Z,63.93
2023-03-02T20:33:01.964Z,56.53
2023-03-02T20:35:30.721Z,52.47
2023-03-02T20:37:59.033Z,51.87
2023-03-02T20:40:26.375Z,53.60
2023-03-02T20:42:53.498Z,54.00
2023-03-02T20:45:20.654Z,60.67
2023-03-02T20:47:47.636Z,49.13
2023-03-02T20:50:17.383Z,57.30
2023-03-02T20:52:44.000Z,52.10
2023-03-02T20:55:11.880Z,52.93
2023-03-02T20:57:38.716Z,70.33
2023-03-02T21:00:08.221Z,48.83
2023-03-02T21:02:34.849Z,49.80
2023-03-02T21:05:01.714Z,46.47
2023-03-02T21:07:28.379Z,52.00
2023-03-02T21:09:55.028Z,46.67
2023-03-02T21:12:21.660Z,48.43
2023-03-02T21:14:48.375Z,46.90
2023-03-02T21:17:15.069Z,45.90
2023-03-02T21:19:41.775Z,50.97
2023-03-02T21:22:08.401Z,55.83
2023-03-02T21:24:35.021Z,50.13
2023-03-02T21:27:02.601Z,46.27
2023-03-02T21:29:29.760Z,45.73
2023-03-02T21:31:56.566Z,45.03
2023-03-02T21:34:23.282Z,48.07
2023-03-02T21:36:53.679Z,45.87
2023-03-02T21:39:23.663Z,44.09
2023-03-02T21:41:51.425Z,42.07
2023-03-02T21:44:18.663Z,48.47
2023-03-02T21:46:45.569Z,47.17
2023-03-02T21:49:18.672Z,50.53
2023-03-02T21:51:45.540Z,46.70
2023-03-02T21:54:12.791Z,48.47
2023-03-02T21:56:39.527Z,45.77
2023-03-02T21:59:06.300Z,47.57
2023-03-02T22:01:33.058Z,50.57
2023-03-02T22:04:00.695Z,49.40
2023-03-02T22:06:30.264Z,50.37
2023-03-02T22:08:57.724Z,52.37
2023-03-02T22:11:29.594Z,56.10
2023-03-02T22:14:01.866Z,51.27
2023-03-02T22:16:33.561Z,137.07
2023-03-02T22:19:00.567Z,65.07
2023-03-02T22:21:37.885Z,54.43
2023-03-02T22:24:18.501Z,52.50
2023-03-02T22:26:47.132Z,48.37
2023-03-02T22:29:25.296Z,52.87
2023-03-02T22:31:54.345Z,55.00
2023-03-02T22:34:30.147Z,50.90
2023-03-02T22:37:00.013Z,44.80
2023-03-02T22:39:33.100Z,50.13
2023-03-02T22:42:06.856Z,49.83
2023-03-02T22:44:34.267Z,57.00
2023-03-02T22:47:01.561Z,48.23
2023-03-02T22:49:29.953Z,50.47
2023-03-02T22:52:01.358Z,45.07
2023-03-02T22:54:33.276Z,46.07
2023-03-02T22:57:00.017Z,45.70
2023-03-02T22:59:28.312Z,42.63
2023-03-02T23:02:00.047Z,43.93
2023-03-02T23:04:37.201Z,51.43
2023-03-02T23:07:17.761Z,58.73
2023-03-02T23:09:44.380Z,57.17
2023-03-02T23:12:22.226Z,47.73
2023-03-02T23:14:51.177Z,43.00
2023-03-02T23:17:32.070Z,42.93
2023-03-02T23:19:58.693Z,44.83
2023-03-02T23:22:28.539Z,47.77
2023-03-02T23:24:55.960Z,44.43
2023-03-02T23:27:24.301Z,45.57
2023-03-02T23:29:52.917Z,43.70
2023-03-02T23:32:19.894Z,48.43
2023-03-02T23:34:46.666Z,44.23
2023-03-02T23:37:13.234Z,46.73
2023-03-02T23:39:39.794Z,45.27
2023-03-02T23:42:09.436Z,45.27
2023-03-02T23:44:36.021Z,43.17
2023-03-02T23:47:03.451Z,49.33
2023-03-02T23:49:30.087Z,43.17
2023-03-02T23:51:56.726Z,43.00
2023-03-02T23:54:23.407Z,47.13
2023-03-02T23:56:49.973Z,46.90
2023-03-02T23:59:16.754Z,46.50
